sensor_id;sensor_type;location;lat;lon;timestamp;pressure;altitude;pressure_sealevel;temperature;humidity
47240;BME280;32978;53.586;10.052;2024-01-15T00:03:26;99150.56;;;0.17;100.00
47240;BME280;32978;53.586;10.052;2024-01-15T00:08:23;99150.84;;;0.16;100.00
47240;BME280;32978;53.586;10.052;2024-01-15T00:13:19;99139.19;;;0.26;100.00
47240;BME280;32978;53.586;10.052;2024-01-15T00:18:16;99143.53;;;0.22;100.00
47240;BME280;32978;53.586;10.052;2024-01-15T00:23:12;99155.72;;;0.14;100.00
47240;BME280;32978;53.586;10.052;2024-01-15T00:28:09;99156.00;;;0.12;100.00
47240;BME280;32978;53.586;10.052;2024-01-15T00:33:05;99128.56;;;0.15;100.00
47240;BME280;32978;53.586;10.052;2024-01-15T00:38:02;99117.81;;;0.15;100.00
47240;BME280;32978;53.586;10.052;2024-01-15T00:42:59;99103.50;;;0.20;100.00
47240;BME280;32978;53.586;10.052;2024-01-15T00:47:56;99088.13;;;0.26;100.00
47240;BME280;32978;53.586;10.052;2024-01-15T00:52:53;99086.00;;;0.23;100.00
47240;BME280;32978;53.586;10.052;2024-01-15T00:57:49;99086.78;;;0.23;100.00
47240;BME280;32978;53.586;10.052;2024-01-15T01:02:46;99088.09;;;-0.17;100.00
47240;BME280;32978;53.586;10.052;2024-01-15T01:07:43;99061.97;;;-0.12;100.00
47240;BME280;32978;53.586;10.052;2024-01-15T01:12:39;99050.81;;;0.00;100.00
47240;BME280;32978;53.586;10.052;2024-01-15T01:17:36;99056.66;;;0.07;100.00
47240;BME280;32978;53.586;10.052;2024-01-15T01:22:33;99040.44;;;0.12;100.00
47240;BME280;32978;53.586;10.052;2024-01-15T01:27:29;99037.03;;;0.26;100.00
47240;BME280;32978;53.586;10.052;2024-01-15T01:32:26;99031.09;;;0.29;100.00
47240;BME280;32978;53.586;10.052;2024-01-15T01:37:23;99029.19;;;0.29;100.00
47240;BME280;32978;53.586;10.052;2024-01-15T01:42:19;99046.63;;;0.32;100.00
47240;BME280;32978;53.586;10.052;2024-01-15T01:47:16;99051.03;;;0.41;100.00
47240;BME280;32978;53.586;10.052;2024-01-15T01:52:13;99060.56;;;0.53;100.00
47240;BME280;32978;53.586;10.052;2024-01-15T01:57:10;99040.94;;;0.52;100.00
47240;BME280;32978;53.586;10.052;2024-01-15T02:07:20;99062.47;;;0.52;100.00
47240;BME280;32978;53.586;10.052;2024-01-15T02:12:17;99069.16;;;0.36;100.00
47240;BME280;32978;53.586;10.052;2024-01-15T02:17:13;99056.56;;;-0.07;100.00
47240;BME280;32978;53.586;10.052;2024-01-15T02:22:10;99041.22;;;-0.06;100.00
47240;BME280;32978;53.586;10.052;2024-01-15T02:27:06;99029.34;;;-0.24;100.00
47240;BME280;32978;53.586;10.052;2024-01-15T02:32:06;99017.22;;;-0.22;100.00
47240;BME280;32978;53.586;10.052;2024-01-15T02:37:04;99010.38;;;0.29;100.00
47240;BME280;32978;53.586;10.052;2024-01-15T02:42:01;99008.56;;;0.25;100.00
47240;BME280;32978;53.586;10.052;2024-01-15T02:46:57;98988.34;;;0.27;100.00
47240;BME280;32978;53.586;10.052;2024-01-15T02:51:54;98983.41;;;0.34;100.00
47240;BME280;32978;53.586;10.052;2024-01-15T02:56:50;98985.44;;;0.43;100.00
47240;BME280;32978;53.586;10.052;2024-01-15T03:01:47;98980.75;;;0.48;100.00
47240;BME280;32978;53.586;10.052;2024-01-15T03:06:43;98977.06;;;0.44;100.00
47240;BME280;32978;53.586;10.052;2024-01-15T03:11:40;98975.56;;;0.38;100.00
47240;BME280;32978;53.586;10.052;2024-01-15T03:16:37;98994.53;;;0.47;100.00
47240;BME280;32978;53.586;10.052;2024-01-15T03:21:33;98994.72;;;0.50;100.00
47240;BME280;32978;53.586;10.052;2024-01-15T03:26:30;98997.41;;;0.50;100.00
47240;BME280;32978;53.586;10.052;2024-01-15T03:31:26;99005.56;;;0.45;100.00
47240;BME280;32978;53.586;10.052;2024-01-15T03:36:23;99006.63;;;0.44;100.00
47240;BME280;32978;53.586;10.052;2024-01-15T03:41:19;99010.50;;;0.38;100.00
47240;BME280;32978;53.586;10.052;2024-01-15T03:46:16;99002.44;;;0.38;100.00
47240;BME280;32978;53.586;10.052;2024-01-15T03:51:13;99009.41;;;0.39;100.00
47240;BME280;32978;53.586;10.052;2024-01-15T03:56:11;99036.22;;;0.44;100.00
47240;BME280;32978;53.586;10.052;2024-01-15T04:01:11;99034.53;;;0.48;100.00
47240;BME280;32978;53.586;10.052;2024-01-15T04:06:08;99042.47;;;0.39;100.00
47240;BME280;32978;53.586;10.052;2024-01-15T04:11:05;99046.06;;;0.35;100.00
47240;BME280;32978;53.586;10.052;2024-01-15T04:16:01;99036.28;;;0.39;100.00
47240;BME280;32978;53.586;10.052;2024-01-15T04:20:59;99057.50;;;0.59;100.00
47240;BME280;32978;53.586;10.052;2024-01-15T04:25:56;99050.16;;;0.46;100.00
47240;BME280;32978;53.586;10.052;2024-01-15T04:30:52;99069.00;;;0.46;100.00
47240;BME280;32978;53.586;10.052;2024-01-15T04:35:49;99067.06;;;0.52;100.00
47240;BME280;32978;53.586;10.052;2024-01-15T04:40:45;99082.31;;;0.56;100.00
47240;BME280;32978;53.586;10.052;2024-01-15T04:45:42;99087.75;;;0.70;100.00
47240;BME280;32978;53.586;10.052;2024-01-15T04:50:38;99094.44;;;0.73;100.00
47240;BME280;32978;53.586;10.052;2024-01-15T04:55:35;99102.59;;;0.68;100.00
47240;BME280;32978;53.586;10.052;2024-01-15T05:00:31;99103.66;;;0.67;100.00
47240;BME280;32978;53.586;10.052;2024-01-15T05:05:28;99110.16;;;0.66;100.00
47240;BME280;32978;53.586;10.052;2024-01-15T05:10:24;99106.34;;;0.67;100.00
47240;BME280;32978;53.586;10.052;2024-01-15T05:15:21;99107.16;;;0.67;100.00
47240;BME280;32978;53.586;10.052;2024-01-15T05:20:18;99108.53;;;0.65;100.00
47240;BME280;32978;53.586;10.052;2024-01-15T05:25:14;99110.28;;;0.55;100.00
47240;BME280;32978;53.586;10.052;2024-01-15T05:30:11;99111.66;;;0.53;100.00
47240;BME280;32978;53.586;10.052;2024-01-15T05:35:08;99110.06;;;0.52;100.00
47240;BME280;32978;53.586;10.052;2024-01-15T05:40:05;99122.56;;;0.61;100.00
47240;BME280;32978;53.586;10.052;2024-01-15T05:45:01;99114.59;;;0.56;100.00
47240;BME280;32978;53.586;10.052;2024-01-15T05:50:01;99110.88;;;0.52;100.00
47240;BME280;32978;53.586;10.052;2024-01-15T05:54:58;99114.50;;;0.61;100.00
47240;BME280;32978;53.586;10.052;2024-01-15T05:59:54;99119.88;;;0.61;100.00
47240;BME280;32978;53.586;10.052;2024-01-15T06:04:51;99119.44;;;0.54;100.00
47240;BME280;32978;53.586;10.052;2024-01-15T06:09:48;99129.63;;;0.57;100.00
47240;BME280;32978;53.586;10.052;2024-01-15T06:14:44;99117.03;;;0.53;100.00
47240;BME280;32978;53.586;10.052;2024-01-15T06:19:41;99116.25;;;0.52;100.00
47240;BME280;32978;53.586;10.052;2024-01-15T06:24:37;99123.22;;;0.53;100.00
47240;BME280;32978;53.586;10.052;2024-01-15T06:29:37;99110.72;;;0.62;100.00
47240;BME280;32978;53.586;10.052;2024-01-15T06:34:34;99124.13;;;0.68;100.00
47240;BME280;32978;53.586;10.052;2024-01-15T06:39:30;99104.25;;;0.63;100.00
47240;BME280;32978;53.586;10.052;2024-01-15T06:44:27;99107.75;;;0.64;100.00
47240;BME280;32978;53.586;10.052;2024-01-15T06:49:23;99116.91;;;0.63;100.00
47240;BME280;32978;53.586;10.052;2024-01-15T06:54:20;99116.56;;;0.70;100.00
47240;BME280;32978;53.586;10.052;2024-01-15T06:59:17;99122.84;;;0.79;100.00
47240;BME280;32978;53.586;10.052;2024-01-15T07:04:15;99124.19;;;0.81;100.00
47240;BME280;32978;53.586;10.052;2024-01-15T07:09:12;99129.25;;;0.83;100.00
47240;BME280;32978;53.586;10.052;2024-01-15T07:14:08;99132.53;;;0.80;100.00
47240;BME280;32978;53.586;10.052;2024-01-15T07:19:05;99141.91;;;0.82;100.00
47240;BME280;32978;53.586;10.052;2024-01-15T07:24:02;99155.28;;;0.88;100.00
47240;BME280;32978;53.586;10.052;2024-01-15T07:28:59;99165.19;;;0.92;100.00
47240;BME280;32978;53.586;10.052;2024-01-15T07:33:55;99175.28;;;1.00;100.00
47240;BME280;32978;53.586;10.052;2024-01-15T07:38:52;99176.69;;;0.98;100.00
47240;BME280;32978;53.586;10.052;2024-01-15T07:43:48;99183.06;;;1.02;100.00
47240;BME280;32978;53.586;10.052;2024-01-15T07:48:45;99180.09;;;1.03;100.00
47240;BME280;32978;53.586;10.052;2024-01-15T07:53:41;99180.44;;;0.97;100.00
47240;BME280;32978;53.586;10.052;2024-01-15T07:58:38;99185.03;;;0.96;100.00
47240;BME280;32978;53.586;10.052;2024-01-15T08:03:35;99186.84;;;1.01;100.00
47240;BME280;32978;53.586;10.052;2024-01-15T08:08:31;99203.25;;;1.04;100.00
47240;BME280;32978;53.586;10.052;2024-01-15T08:13:28;99198.06;;;1.08;100.00
47240;BME280;32978;53.586;10.052;2024-01-15T08:18:24;99202.28;;;1.14;100.00
47240;BME280;32978;53.586;10.052;2024-01-15T08:23:22;99211.22;;;1.10;100.00
47240;BME280;32978;53.586;10.052;2024-01-15T08:28:18;99196.06;;;1.14;100.00
47240;BME280;32978;53.586;10.052;2024-01-15T08:33:14;99213.06;;;1.14;100.00
47240;BME280;32978;53.586;10.052;2024-01-15T08:38:18;99211.22;;;1.10;100.00
47240;BME280;32978;53.586;10.052;2024-01-15T08:43:15;99237.78;;;1.16;100.00
47240;BME280;32978;53.586;10.052;2024-01-15T08:48:11;99238.59;;;1.17;100.00
47240;BME280;32978;53.586;10.052;2024-01-15T08:53:08;99237.72;;;1.02;100.00
47240;BME280;32978;53.586;10.052;2024-01-15T08:58:05;99251.81;;;0.94;100.00
47240;BME280;32978;53.586;10.052;2024-01-15T09:03:02;99249.78;;;0.86;100.00
47240;BME280;32978;53.586;10.052;2024-01-15T09:07:59;99237.53;;;0.75;100.00
47240;BME280;32978;53.586;10.052;2024-01-15T09:12:55;99242.94;;;0.75;100.00
47240;BME280;32978;53.586;10.052;2024-01-15T09:17:52;99244.66;;;0.66;100.00
47240;BME280;32978;53.586;10.052;2024-01-15T09:22:49;99256.22;;;0.66;100.00
47240;BME280;32978;53.586;10.052;2024-01-15T09:27:46;99265.13;;;0.61;100.00
47240;BME280;32978;53.586;10.052;2024-01-15T09:32:42;99260.50;;;0.43;100.00
47240;BME280;32978;53.586;10.052;2024-01-15T09:37:39;99256.63;;;0.30;100.00
47240;BME280;32978;53.586;10.052;2024-01-15T09:42:44;99260.31;;;0.10;100.00
47240;BME280;32978;53.586;10.052;2024-01-15T09:47:41;99247.19;;;-0.26;100.00
47240;BME280;32978;53.586;10.052;2024-01-15T09:52:43;99246.22;;;-0.06;100.00
47240;BME280;32978;53.586;10.052;2024-01-15T09:57:39;99245.31;;;0.04;100.00
47240;BME280;32978;53.586;10.052;2024-01-15T10:02:36;99248.53;;;0.06;100.00
47240;BME280;32978;53.586;10.052;2024-01-15T10:07:35;99240.47;;;0.06;100.00
47240;BME280;32978;53.586;10.052;2024-01-15T10:12:32;99236.66;;;0.12;100.00
47240;BME280;32978;53.586;10.052;2024-01-15T10:17:29;99250.81;;;0.18;100.00
47240;BME280;32978;53.586;10.052;2024-01-15T10:22:27;99235.97;;;0.26;100.00
47240;BME280;32978;53.586;10.052;2024-01-15T10:27:23;99238.59;;;0.31;100.00
47240;BME280;32978;53.586;10.052;2024-01-15T10:32:20;99241.44;;;0.39;100.00
47240;BME280;32978;53.586;10.052;2024-01-15T10:37:20;99255.84;;;0.49;100.00
47240;BME280;32978;53.586;10.052;2024-01-15T10:42:16;99268.69;;;0.57;100.00
47240;BME280;32978;53.586;10.052;2024-01-15T10:47:14;99260.91;;;0.55;100.00
47240;BME280;32978;53.586;10.052;2024-01-15T10:52:11;99260.91;;;0.55;100.00
47240;BME280;32978;53.586;10.052;2024-01-15T10:57:08;99285.69;;;0.52;100.00
47240;BME280;32978;53.586;10.052;2024-01-15T11:02:05;99285.16;;;0.50;100.00
47240;BME280;32978;53.586;10.052;2024-01-15T11:07:02;99290.66;;;0.40;100.00
47240;BME280;32978;53.586;10.052;2024-01-15T11:12:10;99282.06;;;0.38;100.00
47240;BME280;32978;53.586;10.052;2024-01-15T11:17:07;99284.72;;;0.43;100.00
47240;BME280;32978;53.586;10.052;2024-01-15T11:22:04;99275.44;;;0.54;100.00
47240;BME280;32978;53.586;10.052;2024-01-15T11:27:02;99281.34;;;0.56;100.00
47240;BME280;32978;53.586;10.052;2024-01-15T11:32:00;99277.44;;;0.68;100.00
47240;BME280;32978;53.586;10.052;2024-01-15T11:37:01;99287.78;;;0.55;100.00
47240;BME280;32978;53.586;10.052;2024-01-15T11:42:00;99280.81;;;0.54;100.00
47240;BME280;32978;53.586;10.052;2024-01-15T11:47:02;99292.28;;;0.65;100.00
47240;BME280;32978;53.586;10.052;2024-01-15T11:52:00;99289.88;;;0.63;100.00
47240;BME280;32978;53.586;10.052;2024-01-15T11:57:00;99287.34;;;0.72;100.00
47240;BME280;32978;53.586;10.052;2024-01-15T12:02:00;99285.19;;;0.74;100.00
47240;BME280;32978;53.586;10.052;2024-01-15T12:06:57;99304.63;;;0.42;100.00
47240;BME280;32978;53.586;10.052;2024-01-15T12:12:05;99306.69;;;0.50;100.00
47240;BME280;32978;53.586;10.052;2024-01-15T12:17:03;99302.84;;;0.56;100.00
47240;BME280;32978;53.586;10.052;2024-01-15T12:22:01;99308.31;;;0.46;100.00
47240;BME280;32978;53.586;10.052;2024-01-15T12:26:58;99317.44;;;0.50;100.00
47240;BME280;32978;53.586;10.052;2024-01-15T12:31:54;99322.28;;;0.48;100.00
47240;BME280;32978;53.586;10.052;2024-01-15T12:36:52;99328.13;;;0.55;100.00
47240;BME280;32978;53.586;10.052;2024-01-15T12:41:48;99342.56;;;0.40;100.00
47240;BME280;32978;53.586;10.052;2024-01-15T12:46:45;99343.53;;;0.50;100.00
47240;BME280;32978;53.586;10.052;2024-01-15T12:51:42;99353.97;;;0.56;100.00
47240;BME280;32978;53.586;10.052;2024-01-15T12:56:39;99362.03;;;0.56;100.00
47240;BME280;32978;53.586;10.052;2024-01-15T13:01:36;99360.94;;;0.57;100.00
47240;BME280;32978;53.586;10.052;2024-01-15T13:06:32;99366.88;;;0.54;100.00
47240;BME280;32978;53.586;10.052;2024-01-15T13:11:29;99376.03;;;0.53;100.00
47240;BME280;32978;53.586;10.052;2024-01-15T13:16:25;99372.50;;;0.58;100.00
47240;BME280;32978;53.586;10.052;2024-01-15T13:21:25;99382.44;;;0.57;100.00
47240;BME280;32978;53.586;10.052;2024-01-15T13:26:22;99396.06;;;0.42;100.00
47240;BME280;32978;53.586;10.052;2024-01-15T13:31:18;99401.59;;;0.51;100.00
47240;BME280;32978;53.586;10.052;2024-01-15T13:36:15;99423.75;;;0.43;100.00
47240;BME280;32978;53.586;10.052;2024-01-15T13:41:11;99426.22;;;0.34;100.00
47240;BME280;32978;53.586;10.052;2024-01-15T13:46:08;99431.50;;;0.44;100.00
47240;BME280;32978;53.586;10.052;2024-01-15T13:51:04;99439.41;;;0.35;100.00
47240;BME280;32978;53.586;10.052;2024-01-15T13:56:01;99448.22;;;0.41;100.00
47240;BME280;32978;53.586;10.052;2024-01-15T14:00:57;99455.75;;;0.39;100.00
47240;BME280;32978;53.586;10.052;2024-01-15T14:05:54;99444.88;;;0.20;100.00
47240;BME280;32978;53.586;10.052;2024-01-15T14:10:51;99455.59;;;0.25;100.00
47240;BME280;32978;53.586;10.052;2024-01-15T14:15:47;99466.19;;;0.46;100.00
47240;BME280;32978;53.586;10.052;2024-01-15T14:20:46;99470.00;;;0.39;100.00
47240;BME280;32978;53.586;10.052;2024-01-15T14:25:42;99478.63;;;0.36;100.00
47240;BME280;32978;53.586;10.052;2024-01-15T14:30:39;99487.31;;;0.23;100.00
47240;BME280;32978;53.586;10.052;2024-01-15T14:35:35;99491.63;;;0.24;100.00
47240;BME280;32978;53.586;10.052;2024-01-15T14:40:32;99497.81;;;0.25;100.00
47240;BME280;32978;53.586;10.052;2024-01-15T14:45:29;99508.00;;;0.28;100.00
47240;BME280;32978;53.586;10.052;2024-01-15T14:50:26;99502.69;;;0.17;100.00
47240;BME280;32978;53.586;10.052;2024-01-15T14:55:23;99508.16;;;0.07;100.00
47240;BME280;32978;53.586;10.052;2024-01-15T15:00:19;99509.81;;;-0.07;100.00
47240;BME280;32978;53.586;10.052;2024-01-15T15:05:16;99519.53;;;-0.11;100.00
47240;BME280;32978;53.586;10.052;2024-01-15T15:10:13;99527.63;;;-0.22;100.00
47240;BME280;32978;53.586;10.052;2024-01-15T15:15:11;99520.16;;;-0.35;100.00
47240;BME280;32978;53.586;10.052;2024-01-15T15:20:13;99529.31;;;-0.41;100.00
47240;BME280;32978;53.586;10.052;2024-01-15T15:25:10;99535.78;;;-0.52;100.00
47240;BME280;32978;53.586;10.052;2024-01-15T15:30:08;99542.78;;;-0.56;100.00
47240;BME280;32978;53.586;10.052;2024-01-15T15:35:04;99547.63;;;-0.58;100.00
47240;BME280;32978;53.586;10.052;2024-01-15T15:40:03;99542.78;;;-0.56;100.00
47240;BME280;32978;53.586;10.052;2024-01-15T15:45:04;99553.53;;;-0.56;100.00
47240;BME280;32978;53.586;10.052;2024-01-15T15:50:01;99559.44;;;-0.59;100.00
47240;BME280;32978;53.586;10.052;2024-01-15T15:54:58;99567.50;;;-0.59;100.00
47240;BME280;32978;53.586;10.052;2024-01-15T15:59:55;99580.38;;;-0.56;100.00
47240;BME280;32978;53.586;10.052;2024-01-15T16:04:51;99580.38;;;-0.61;100.00
47240;BME280;32978;53.586;10.052;2024-01-15T16:09:48;99583.06;;;-0.61;100.00
47240;BME280;32978;53.586;10.052;2024-01-15T16:14:45;99582.53;;;-0.69;100.00
47240;BME280;32978;53.586;10.052;2024-01-15T16:19:41;99576.38;;;-0.69;100.00
47240;BME280;32978;53.586;10.052;2024-01-15T16:24:58;99574.78;;;-0.75;100.00
47240;BME280;32978;53.586;10.052;2024-01-15T16:29:59;99575.06;;;-0.87;100.00
47240;BME280;32978;53.586;10.052;2024-01-15T16:34:55;99583.66;;;-0.85;100.00
47240;BME280;32978;53.586;10.052;2024-01-15T16:39:52;99573.47;;;-0.88;100.00
47240;BME280;32978;53.586;10.052;2024-01-15T16:44:48;99568.59;;;-0.91;100.00
47240;BME280;32978;53.586;10.052;2024-01-15T16:49:45;99577.75;;;-0.92;100.00
47240;BME280;32978;53.586;10.052;2024-01-15T16:54:41;99575.31;;;-0.94;100.00
47240;BME280;32978;53.586;10.052;2024-01-15T16:59:38;99584.19;;;-0.88;100.00
47240;BME280;32978;53.586;10.052;2024-01-15T17:04:35;99576.66;;;-0.86;100.00
47240;BME280;32978;53.586;10.052;2024-01-15T17:09:31;99587.13;;;-0.79;100.00
47240;BME280;32978;53.586;10.052;2024-01-15T17:14:28;99599.47;;;-0.73;100.00
47240;BME280;32978;53.586;10.052;2024-01-15T17:19:24;99600.78;;;-0.60;100.00
47240;BME280;32978;53.586;10.052;2024-01-15T17:24:23;99611.53;;;-0.55;100.00
47240;BME280;32978;53.586;10.052;2024-01-15T17:29:19;99611.50;;;-0.50;100.00
47240;BME280;32978;53.586;10.052;2024-01-15T17:34:17;99616.34;;;-0.47;100.00
47240;BME280;32978;53.586;10.052;2024-01-15T17:39:14;99614.19;;;-0.60;100.00
47240;BME280;32978;53.586;10.052;2024-01-15T17:44:12;99635.16;;;-0.62;100.00
47240;BME280;32978;53.586;10.052;2024-01-15T17:49:09;99638.94;;;-0.74;100.00
47240;BME280;32978;53.586;10.052;2024-01-15T17:54:05;99636.78;;;-0.72;100.00
47240;BME280;32978;53.586;10.052;2024-01-15T17:59:05;99642.69;;;-0.65;100.00
47240;BME280;32978;53.586;10.052;2024-01-15T18:04:05;99647.47;;;-0.51;100.00
47240;BME280;32978;53.586;10.052;2024-01-15T18:09:02;99659.84;;;-0.50;100.00
47240;BME280;32978;53.586;10.052;2024-01-15T18:13:58;99672.19;;;-0.39;100.00
47240;BME280;32978;53.586;10.052;2024-01-15T18:18:55;99690.19;;;-0.34;100.00
47240;BME280;32978;53.586;10.052;2024-01-15T18:23:52;99702.28;;;-0.37;100.00
47240;BME280;32978;53.586;10.052;2024-01-15T18:28:48;99709.25;;;-0.36;100.00
47240;BME280;32978;53.586;10.052;2024-01-15T18:33:45;99708.16;;;-0.40;100.00
47240;BME280;32978;53.586;10.052;2024-01-15T18:38:41;99717.31;;;-0.41;100.00
47240;BME280;32978;53.586;10.052;2024-01-15T18:43:38;99728.88;;;-0.51;100.00
47240;BME280;32978;53.586;10.052;2024-01-15T18:48:34;99742.00;;;-0.54;100.00
47240;BME280;32978;53.586;10.052;2024-01-15T18:53:31;99739.31;;;-0.49;100.00
47240;BME280;32978;53.586;10.052;2024-01-15T18:58:28;99744.72;;;-0.44;100.00
47240;BME280;32978;53.586;10.052;2024-01-15T19:03:24;99734.50;;;-0.37;100.00
47240;BME280;32978;53.586;10.052;2024-01-15T19:08:21;99744.16;;;-0.36;100.00
47240;BME280;32978;53.586;10.052;2024-01-15T19:13:17;99751.69;;;-0.33;100.00
47240;BME280;32978;53.586;10.052;2024-01-15T19:18:14;99737.72;;;-0.35;100.00
47240;BME280;32978;53.586;10.052;2024-01-15T19:23:10;99744.72;;;-0.34;100.00
47240;BME280;32978;53.586;10.052;2024-01-15T19:28:07;99721.06;;;-0.32;100.00
47240;BME280;32978;53.586;10.052;2024-01-15T19:33:04;99721.06;;;-0.42;100.00
47240;BME280;32978;53.586;10.052;2024-01-15T19:38:00;99729.91;;;-0.47;100.00
47240;BME280;32978;53.586;10.052;2024-01-15T19:42:59;99731.81;;;-0.42;100.00
47240;BME280;32978;53.586;10.052;2024-01-15T19:47:58;99740.16;;;-0.44;100.00
47240;BME280;32978;53.586;10.052;2024-01-15T19:52:55;99715.16;;;-0.49;100.00
47240;BME280;32978;53.586;10.052;2024-01-15T19:57:51;99726.44;;;-0.42;100.00
47240;BME280;32978;53.586;10.052;2024-01-15T20:02:48;99717.28;;;-0.51;100.00
47240;BME280;32978;53.586;10.052;2024-01-15T20:07:44;99731.28;;;-0.49;100.00
47240;BME280;32978;53.586;10.052;2024-01-15T20:12:41;99739.59;;;-0.40;100.00
47240;BME280;32978;53.586;10.052;2024-01-15T20:17:37;99749.00;;;-0.38;100.00
47240;BME280;32978;53.586;10.052;2024-01-15T20:22:34;99745.78;;;-0.40;100.00
47240;BME280;32978;53.586;10.052;2024-01-15T20:27:30;99755.44;;;-0.34;100.00
47240;BME280;32978;53.586;10.052;2024-01-15T20:32:27;99782.03;;;-0.27;100.00
47240;BME280;32978;53.586;10.052;2024-01-15T20:37:23;99779.09;;;-0.36;100.00
47240;BME280;32978;53.586;10.052;2024-01-15T20:42:20;99797.88;;;-0.41;100.00
47240;BME280;32978;53.586;10.052;2024-01-15T20:47:16;99811.56;;;-0.37;100.00
47240;BME280;32978;53.586;10.052;2024-01-15T20:52:13;99799.50;;;-0.50;100.00
47240;BME280;32978;53.586;10.052;2024-01-15T20:57:09;99833.34;;;-0.39;100.00
47240;BME280;32978;53.586;10.052;2024-01-15T21:02:06;99843.53;;;-0.46;100.00
47240;BME280;32978;53.586;10.052;2024-01-15T21:07:05;99843.81;;;-0.37;100.00
47240;BME280;32978;53.586;10.052;2024-01-15T21:12:03;99861.00;;;-0.44;100.00
47240;BME280;32978;53.586;10.052;2024-01-15T21:17:04;99873.63;;;-0.44;100.00
47240;BME280;32978;53.586;10.052;2024-01-15T21:22:00;99881.91;;;-0.56;100.00
47240;BME280;32978;53.586;10.052;2024-01-15T21:26:57;99874.38;;;-0.54;100.00
47240;BME280;32978;53.586;10.052;2024-01-15T21:31:54;99894.50;;;-0.61;100.00
47240;BME280;32978;53.586;10.052;2024-01-15T21:36:50;99894.03;;;-0.48;100.00
47240;BME280;32978;53.586;10.052;2024-01-15T21:41:47;99890.00;;;-0.51;100.00
47240;BME280;32978;53.586;10.052;2024-01-15T21:46:45;99905.81;;;-0.49;100.00
47240;BME280;32978;53.586;10.052;2024-01-15T21:51:42;99917.66;;;-0.50;100.00
47240;BME280;32978;53.586;10.052;2024-01-15T21:56:38;99927.84;;;-0.47;100.00
47240;BME280;32978;53.586;10.052;2024-01-15T22:01:35;99949.34;;;-0.47;100.00
47240;BME280;32978;53.586;10.052;2024-01-15T22:06:31;99954.69;;;-0.57;100.00
47240;BME280;32978;53.586;10.052;2024-01-15T22:11:31;99976.09;;;-0.68;100.00
47240;BME280;32978;53.586;10.052;2024-01-15T22:16:29;99989.22;;;-0.76;100.00
47240;BME280;32978;53.586;10.052;2024-01-15T22:21:25;100005.22;;;-0.97;100.00
47240;BME280;32978;53.586;10.052;2024-01-15T22:26:22;100016.88;;;-0.76;100.00
47240;BME280;32978;53.586;10.052;2024-01-15T22:31:18;100029.53;;;-0.71;100.00
47240;BME280;32978;53.586;10.052;2024-01-15T22:36:15;100029.19;;;-0.80;100.00
47240;BME280;32978;53.586;10.052;2024-01-15T22:41:11;100048.56;;;-0.73;100.00
47240;BME280;32978;53.586;10.052;2024-01-15T22:46:08;100064.41;;;-0.76;100.00
47240;BME280;32978;53.586;10.052;2024-01-15T22:51:06;100085.75;;;-0.92;100.00
47240;BME280;32978;53.586;10.052;2024-01-15T22:56:03;100102.63;;;-0.96;100.00
47240;BME280;32978;53.586;10.052;2024-01-15T23:01:00;100113.28;;;-1.07;100.00
47240;BME280;32978;53.586;10.052;2024-01-15T23:05:56;100104.06;;;-1.16;100.00
47240;BME280;32978;53.586;10.052;2024-01-15T23:10:53;100107.41;;;-1.03;100.00
47240;BME280;32978;53.586;10.052;2024-01-15T23:15:49;100125.69;;;-0.95;100.00
47240;BME280;32978;53.586;10.052;2024-01-15T23:20:46;100115.44;;;-1.03;100.00
47240;BME280;32978;53.586;10.052;2024-01-15T23:25:42;100131.69;;;-0.88;100.00
47240;BME280;32978;53.586;10.052;2024-01-15T23:30:39;100140.25;;;-0.86;100.00
47240;BME280;32978;53.586;10.052;2024-01-15T23:35:35;100155.72;;;-0.98;100.00
47240;BME280;32978;53.586;10.052;2024-01-15T23:40:32;100166.28;;;-1.19;100.00
47240;BME280;32978;53.586;10.052;2024-01-15T23:45:29;100171.22;;;-1.06;100.00
47240;BME280;32978;53.586;10.052;2024-01-15T23:50:25;100168.72;;;-1.39;100.00
47240;BME280;32978;53.586;10.052;2024-01-15T23:55:22;100181.47;;;-1.30;100.00
